createdAt,value
2019-02-02T10:18:22.802Z,20.00
2019-02-02T10:19:22.873Z,12.00
2019-02-02T10:20:23.015Z,16.00
2019-02-02T10:21:41.464Z,8.00
2019-02-02T10:22:41.742Z,4.00
2019-02-02T10:23:41.625Z,8.00
2019-02-02T10:24:59.026Z,0.00
2019-02-02T10:25:59.124Z,0.00
2019-02-02T10:26:59.251Z,0.00
2019-02-02T10:27:59.260Z,72.00
2019-02-02T10:28:59.522Z,44.00
2019-02-02T10:29:59.395Z,40.00
2019-02-02T10:30:54.847Z,36.00
2019-02-02T10:31:54.956Z,4.00
2019-02-02T10:33:07.188Z,0.00
2019-02-02T10:34:05.052Z,0.00
2019-02-02T10:35:05.243Z,0.00
2019-02-02T10:35:57.781Z,0.00
2019-02-02T10:37:04.196Z,0.00
2019-02-02T10:38:16.239Z,0.00
2019-02-02T10:39:04.157Z,0.00
2019-02-02T10:40:10.695Z,0.00
2019-02-02T10:41:06.665Z,0.00
2019-02-02T10:42:07.609Z,0.00
2019-02-02T10:43:02.010Z,0.00
2019-02-02T10:44:08.844Z,0.00
2019-02-02T10:45:08.952Z,0.00
2019-02-02T10:46:10.847Z,0.00
2019-02-02T10:47:09.192Z,0.00
2019-02-02T10:48:09.412Z,0.00
2019-02-02T10:49:09.564Z,0.00
2019-02-02T10:50:09.572Z,0.00
2019-02-02T10:51:09.703Z,0.00
2019-02-02T10:52:09.753Z,0.00
2019-02-02T10:53:09.859Z,0.00
2019-02-02T10:54:10.058Z,0.00
2019-02-02T10:55:10.045Z,0.00
2019-02-02T10:56:10.119Z,0.00
2019-02-02T10:56:55.004Z,0.00
2019-02-02T10:57:54.482Z,0.00
2019-02-02T10:58:39.114Z,0.00
2019-02-02T10:59:29.740Z,0.00
2019-02-02T11:00:29.620Z,4.00
2019-02-02T11:01:29.750Z,4.00
2019-02-02T11:02:29.893Z,0.00
2019-02-02T11:03:30.096Z,0.00
2019-02-02T11:04:30.188Z,0.00
2019-02-02T11:05:30.384Z,0.00
2019-02-02T11:06:30.490Z,4.00
2019-02-02T11:07:30.712Z,4.00
2019-02-02T11:08:24.846Z,0.00
2019-02-02T11:09:24.882Z,0.00
2019-02-02T11:10:24.976Z,0.00
2019-02-02T11:11:25.051Z,0.00
2019-02-02T11:12:25.175Z,0.00
